Terminal Aerodrome Forecast
Issued by NWS Shreveport, LA

Home | Current Version | Previous Version | Text Only | Print | Product List | Glossary On
Versions: 1 2 3 4 5 6 7 8 9 10 11 12
000
FTUS44 KSHV 312342
TAFGGG
TAF
KGGG 312342Z 0100/0124 15005KT P6SM SCT080 BKN250
     FM010100 16005KT P6SM BKN250
     FM011600 19007KT P6SM SCT035 BKN250
     FM012000 16009KT P6SM BKN050 BKN250=

USA.gov is the U.S. government's official web portal to all federal, state and local government web resources and services.